Flight Track Log - Related Links

Times and Time Zones

All times are in EDT time to prevent confusion due to time zone crossing. See the N210PM flight status page for this flight to view local times or setup timezone preferences in your user account.

Time Position Orientation Groundspeed Altitude Reporting Facility
EDT Latitude Longitude Course Direction KTS MPH feet Rate Location/Type
Fri 09:04:56 AM 40.8547 -96.7442 44° Northeast 147 169 1,700  Level Minneapolis Center
Fri 09:06:13 AM 40.8931 -96.6956 44° Northeast 184 212 4,700 2,245 Climbing Minneapolis Center
Fri 09:07:15 AM 40.8561 -96.6383 130° Southeast 201 231 6,900 2,146 Climbing Minneapolis Center
Fri 09:08:16 AM 40.8200 -96.5775 128° Southeast 208 239 9,100 2,098 Climbing Minneapolis Center
Fri 09:09:18 AM 40.7814 -96.5142 129° Southeast 218 251 11,200 2,000 Climbing Minneapolis Center
Fri 09:10:19 AM 40.7414 -96.4500 129° Southeast 224 258 13,200 1,854 Climbing Minneapolis Center
Fri 09:11:21 AM 40.6919 -96.3689 129° Southeast 230 265 15,000 878 Climbing Minneapolis Center
Fri 09:12:22 AM 40.6411 -96.2886 130° Southeast 254 292 15,000  Level Minneapolis Center
Fri 09:13:21 AM 40.5772 -96.1800 128° Southeast 328 377 15,000  Level Minneapolis Center
Fri 09:14:15 AM 40.5256 -96.0925 128° Southeast 334 384 15,000  Level Minneapolis Center
Fri 09:15:16 AM 40.4692 -95.9975 128° Southeast 334 384 15,000  Level Minneapolis Center
Fri 09:16:16 AM 40.4128 -95.9053 129° Southeast 324 373 15,000  Level Minneapolis Center
Fri 09:17:17 AM 40.3561 -95.8106 128° Southeast 327 376 15,000  Level Minneapolis Center
Fri 09:18:32 AM 40.2931 -95.7278 135° Southeast 330 380 15,000 -307 Level Minneapolis Center
Fri 09:19:34 AM 40.2228 -95.6147 129° Southeast 333 383 14,300 -1,171 Descending Minneapolis Center
Fri 09:20:35 AM 40.1667 -95.5253 129° Southeast 325 374 12,600 -1,672 Descending Minneapolis Center
Fri 09:21:36 AM 40.1097 -95.4367 130° Southeast 312 359 10,900 -1,574 Descending Kansas City Center
Fri 09:22:37 AM 40.0597 -95.3581 130° Southeast 297 342 9,400 -1,463 Descending Kansas City Center
Fri 09:23:39 AM 40.0100 -95.2800 130° Southeast 292 336 7,900 -1,561 Descending Kansas City Center
Fri 09:24:40 AM 39.9539 -95.1906 129° Southeast 282 325 6,200 -1,463 Descending Kansas City Center
Fri 09:25:42 AM 39.9075 -95.1206 131° Southeast 269 310 4,900 -1,258 Descending Kansas City Center
Fri 09:26:44 AM 39.8569 -95.0414 130° Southeast 253 291 3,600 -927 Descending Kansas City Center
Fri 09:27:45 AM 39.8156 -94.9761 130° Southeast 245 282 3,000 -293 Descending Kansas City Center
Fri 09:28:47 AM 39.7714 -94.9464 153° Southeast 207 238 3,000 -488 Level Kansas City Center
Fri 09:29:48 AM 39.7222 -94.9328 168° South 178 205 2,000 -878 Descending Kansas City Center
Fri 09:30:50 AM 39.7431 -94.9058 45° Northeast 138 159 1,200 -774 Descending Kansas City Center
Fri 09:32:00 AM 39.7667 -94.9000 North  Level FlightAware Approximate
Fri 09:39:00 AM 39.7719 -94.9097 North  Level Estimated

Login

Don't have an account? Register now (free) for customized features, flight alerts, and more!